createdAt,value
2022-12-04T00:00:27.260Z,47.38
2022-12-04T00:02:54.280Z,47.34
2022-12-04T00:05:21.195Z,47.14
2022-12-04T00:07:48.178Z,47.38
2022-12-04T00:10:15.131Z,47.18
2022-12-04T00:12:42.064Z,47.60
2022-12-04T00:15:25.052Z,47.86
2022-12-04T00:17:53.248Z,47.91
2022-12-04T00:20:20.280Z,47.61
2022-12-04T00:22:47.454Z,47.85
2022-12-04T00:25:14.443Z,47.84
2022-12-04T00:27:41.447Z,48.54
2022-12-04T00:30:08.897Z,48.29
2022-12-04T00:32:35.849Z,48.45
2022-12-04T00:35:02.937Z,48.00
2022-12-04T00:37:29.932Z,48.29
2022-12-04T00:39:57.000Z,48.08
2022-12-04T00:42:24.211Z,47.75
2022-12-04T00:44:51.006Z,48.48
2022-12-04T00:47:18.011Z,48.18
2022-12-04T00:49:44.882Z,48.32
2022-12-04T00:52:11.852Z,48.26
2022-12-04T00:54:38.944Z,48.80
2022-12-04T00:57:05.914Z,49.20
2022-12-04T00:59:32.768Z,48.98
2022-12-04T01:01:59.704Z,48.71
2022-12-04T01:04:26.539Z,48.80
2022-12-04T01:06:53.486Z,48.46
2022-12-04T01:09:20.423Z,48.60
2022-12-04T01:11:47.486Z,48.78
2022-12-04T01:14:14.362Z,49.10
2022-12-04T01:16:41.433Z,48.74
2022-12-04T01:19:11.524Z,48.62
2022-12-04T01:21:39.293Z,48.95
2022-12-04T01:24:07.026Z,48.99
2022-12-04T01:26:34.470Z,48.49
2022-12-04T01:29:01.821Z,48.51
2022-12-04T01:31:28.804Z,48.58
2022-12-04T01:33:55.757Z,49.08
2022-12-04T01:36:26.386Z,49.26
2022-12-04T01:38:53.403Z,48.84
2022-12-04T01:41:26.910Z,48.67
2022-12-04T01:44:14.449Z,49.01
2022-12-04T01:46:42.809Z,48.99
2022-12-04T01:49:15.242Z,48.60
2022-12-04T01:51:48.515Z,48.80
2022-12-04T01:54:22.696Z,49.19
2022-12-04T01:56:54.563Z,48.99
2022-12-04T01:59:26.045Z,49.22
2022-12-04T02:02:03.821Z,49.34
2022-12-04T02:04:31.873Z,48.87
2022-12-04T02:06:58.832Z,49.29
2022-12-04T02:09:27.272Z,48.90
2022-12-04T02:12:23.744Z,49.30
2022-12-04T02:15:31.997Z,49.31
2022-12-04T02:18:09.923Z,48.87
2022-12-04T02:21:00.977Z,49.25
2022-12-04T02:23:51.715Z,48.96
2022-12-04T02:26:40.753Z,49.77
2022-12-04T02:30:00.277Z,49.81
2022-12-04T02:32:45.665Z,49.19
2022-12-04T02:35:35.331Z,49.54
2022-12-04T02:38:14.296Z,49.29
2022-12-04T02:41:19.959Z,48.92
2022-12-04T02:43:54.819Z,48.46
2022-12-04T02:46:37.081Z,49.65
2022-12-04T02:49:08.431Z,49.17
2022-12-04T02:51:39.700Z,49.37
2022-12-04T02:54:13.662Z,49.17
2022-12-04T02:56:45.151Z,49.08
2022-12-04T02:59:23.132Z,49.17
2022-12-04T03:01:55.622Z,49.22
2022-12-04T03:04:27.291Z,49.45
2022-12-04T03:07:06.226Z,49.61
2022-12-04T03:09:56.431Z,49.85
2022-12-04T03:12:53.118Z,49.97
2022-12-04T03:15:46.260Z,49.53
2022-12-04T03:18:26.695Z,48.90
2022-12-04T03:21:02.734Z,49.08
2022-12-04T03:23:39.304Z,49.31
2022-12-04T03:26:28.948Z,49.12
2022-12-04T03:29:21.316Z,48.89
2022-12-04T03:31:57.111Z,49.82
2022-12-04T03:34:38.889Z,48.85
2022-12-04T03:37:12.772Z,49.16
2022-12-04T03:39:55.295Z,49.05
2022-12-04T03:42:44.278Z,49.22
2022-12-04T03:45:19.543Z,49.37
2022-12-04T03:47:55.752Z,48.99
2022-12-04T03:50:36.419Z,49.40
2022-12-04T03:53:22.627Z,48.90
2022-12-04T03:56:16.530Z,49.68
2022-12-04T03:58:49.188Z,49.35
2022-12-04T04:01:21.223Z,49.09
2022-12-04T04:03:52.255Z,49.13
2022-12-04T04:06:24.147Z,49.21
2022-12-04T04:08:57.016Z,49.41
2022-12-04T04:11:48.739Z,49.50
2022-12-04T04:14:29.054Z,49.34
2022-12-04T04:17:02.123Z,49.38
2022-12-04T04:19:32.987Z,49.86
2022-12-04T04:22:02.950Z,49.38
2022-12-04T04:24:37.048Z,50.05
2022-12-04T04:27:04.385Z,49.81
2022-12-04T04:29:31.545Z,50.09
2022-12-04T04:32:10.686Z,50.13
2022-12-04T04:34:49.921Z,49.87
2022-12-04T04:37:33.131Z,49.82
2022-12-04T04:40:24.417Z,49.30
2022-12-04T04:43:23.837Z,49.68
2022-12-04T04:46:06.917Z,49.96
2022-12-04T04:48:44.895Z,50.05
2022-12-04T04:51:12.286Z,49.65
2022-12-04T04:53:45.560Z,49.85
2022-12-04T04:56:12.808Z,49.96
2022-12-04T04:58:39.771Z,49.43
2022-12-04T05:01:13.279Z,49.63
2022-12-04T05:03:41.460Z,49.30
2022-12-04T05:06:08.385Z,49.89
2022-12-04T05:08:36.253Z,49.68
2022-12-04T05:11:03.657Z,49.61
2022-12-04T05:13:31.656Z,49.50
2022-12-04T05:15:59.705Z,49.22
2022-12-04T05:18:27.586Z,49.05
2022-12-04T05:20:55.022Z,49.11
2022-12-04T05:23:22.389Z,49.50
2022-12-04T05:25:49.358Z,49.15
2022-12-04T05:28:16.623Z,49.64
2022-12-04T05:30:43.895Z,49.46
2022-12-04T05:33:11.002Z,49.24
2022-12-04T05:35:37.955Z,49.36
2022-12-04T05:38:04.962Z,49.63
2022-12-04T05:40:31.847Z,49.97
2022-12-04T05:42:58.741Z,49.41
2022-12-04T05:45:25.648Z,48.84
2022-12-04T05:47:52.635Z,48.54
2022-12-04T05:50:19.572Z,48.43
2022-12-04T05:52:46.524Z,48.64
2022-12-04T05:55:13.415Z,49.06
2022-12-04T05:57:40.368Z,49.37
2022-12-04T06:00:08.021Z,48.94
2022-12-04T06:02:38.075Z,48.73
2022-12-04T06:05:05.431Z,48.73
2022-12-04T06:07:32.587Z,48.38
2022-12-04T06:09:59.974Z,48.86
2022-12-04T06:12:31.014Z,48.52
2022-12-04T06:14:58.051Z,48.68
2022-12-04T06:17:25.196Z,48.24
2022-12-04T06:19:52.401Z,48.86
2022-12-04T06:22:19.981Z,48.76
2022-12-04T06:24:47.083Z,48.83
2022-12-04T06:27:29.461Z,48.37
2022-12-04T06:29:56.790Z,48.00
2022-12-04T06:32:23.821Z,48.85
2022-12-04T06:34:54.909Z,48.00
2022-12-04T06:37:23.257Z,47.57
2022-12-04T06:39:50.537Z,46.94
2022-12-04T06:42:17.920Z,46.78
2022-12-04T06:44:44.813Z,46.19
2022-12-04T06:47:11.772Z,46.82
2022-12-04T06:49:38.837Z,46.13
2022-12-04T06:52:05.843Z,46.32
2022-12-04T06:54:35.193Z,45.46
2022-12-04T06:57:02.160Z,45.22
2022-12-04T06:59:29.139Z,45.20
2022-12-04T07:01:56.157Z,44.40
2022-12-04T07:04:23.245Z,44.60
2022-12-04T07:06:50.252Z,44.56
2022-12-04T07:09:18.080Z,44.83
2022-12-04T07:11:46.134Z,44.49
2022-12-04T07:14:14.304Z,44.04
2022-12-04T07:16:42.573Z,44.53
2022-12-04T07:19:11.366Z,44.17
2022-12-04T07:21:39.840Z,43.91
2022-12-04T07:24:06.906Z,43.28
2022-12-04T07:26:34.130Z,43.01
2022-12-04T07:29:01.009Z,43.52
2022-12-04T07:31:30.196Z,43.24
2022-12-04T07:33:58.024Z,43.40
2022-12-04T07:36:26.353Z,43.40
2022-12-04T07:38:55.383Z,43.06
2022-12-04T07:41:22.696Z,42.98
2022-12-04T07:43:49.780Z,42.74
2022-12-04T07:46:20.023Z,42.98
2022-12-04T07:48:47.040Z,42.44
2022-12-04T07:51:21.449Z,42.51
2022-12-04T07:53:49.800Z,42.45
2022-12-04T07:56:18.211Z,42.09
2022-12-04T07:58:45.384Z,42.18
2022-12-04T08:01:16.574Z,42.21
2022-12-04T08:03:48.418Z,41.94
2022-12-04T08:06:18.442Z,41.55
2022-12-04T08:08:46.101Z,41.21
2022-12-04T08:11:16.473Z,40.83
2022-12-04T08:13:43.949Z,40.39
2022-12-04T08:16:12.309Z,40.51
2022-12-04T08:18:39.428Z,40.82
2022-12-04T08:21:12.805Z,40.33
2022-12-04T08:23:42.012Z,40.40
2022-12-04T08:26:09.700Z,40.50
2022-12-04T08:28:37.049Z,39.90
2022-12-04T08:31:10.293Z,39.16
2022-12-04T08:33:37.486Z,39.53
2022-12-04T08:36:12.350Z,39.44
2022-12-04T08:38:39.631Z,38.86
2022-12-04T08:41:08.393Z,39.15
2022-12-04T08:43:35.419Z,38.74
2022-12-04T08:46:05.902Z,38.67
2022-12-04T08:48:34.277Z,38.51
2022-12-04T08:51:01.681Z,38.82
2022-12-04T08:53:28.635Z,38.90
2022-12-04T08:55:55.436Z,38.06
2022-12-04T08:58:23.116Z,37.79
2022-12-04T09:00:50.040Z,38.46
2022-12-04T09:03:19.140Z,37.84
2022-12-04T09:05:46.772Z,37.77
2022-12-04T09:08:15.722Z,37.47
2022-12-04T09:10:43.199Z,38.03
2022-12-04T09:13:10.492Z,37.89
2022-12-04T09:15:41.326Z,37.60
2022-12-04T09:18:09.054Z,38.31
2022-12-04T09:20:37.095Z,37.98
2022-12-04T09:23:05.812Z,37.46
2022-12-04T09:25:37.062Z,37.34
2022-12-04T09:28:04.679Z,37.35
2022-12-04T09:30:31.840Z,37.68
2022-12-04T09:32:58.947Z,37.86
2022-12-04T09:35:25.869Z,37.47
2022-12-04T09:37:52.813Z,36.87
2022-12-04T09:40:33.490Z,37.38
2022-12-04T09:43:21.578Z,36.40
2022-12-04T09:45:55.237Z,36.90
2022-12-04T09:48:32.274Z,37.06
2022-12-04T09:51:02.012Z,35.95
2022-12-04T09:53:46.989Z,36.41
2022-12-04T09:56:17.030Z,36.66
2022-12-04T09:58:46.924Z,36.39
2022-12-04T10:01:26.980Z,36.53
2022-12-04T10:03:58.703Z,36.38
2022-12-04T10:06:40.157Z,36.51
2022-12-04T10:09:20.585Z,36.49
2022-12-04T10:12:18.386Z,36.85
2022-12-04T10:15:26.582Z,36.36
2022-12-04T10:18:15.064Z,36.70
2022-12-04T10:21:09.578Z,36.50
2022-12-04T10:23:45.098Z,36.67
2022-12-04T10:26:16.508Z,35.88
2022-12-04T10:28:55.068Z,37.29
2022-12-04T10:31:24.807Z,36.53
2022-12-04T10:34:01.576Z,36.24
2022-12-04T10:36:32.789Z,36.31
2022-12-04T10:39:10.387Z,36.69
2022-12-04T10:42:01.482Z,36.84
2022-12-04T10:44:28.569Z,37.09
2022-12-04T10:46:59.286Z,36.76
2022-12-04T10:49:29.571Z,36.25
2022-12-04T10:51:56.947Z,36.84
2022-12-04T10:54:37.483Z,36.87
2022-12-04T10:57:10.009Z,36.33
2022-12-04T10:59:57.101Z,36.97
2022-12-04T11:02:31.755Z,37.10
2022-12-04T11:05:25.022Z,37.44
2022-12-04T11:07:52.813Z,36.89
2022-12-04T11:10:19.789Z,37.17
2022-12-04T11:12:57.289Z,37.10
2022-12-04T11:15:25.123Z,36.42
2022-12-04T11:17:52.785Z,37.50
2022-12-04T11:20:27.018Z,37.46
2022-12-04T11:22:57.490Z,37.14
2022-12-04T11:25:28.290Z,37.26
2022-12-04T11:27:58.746Z,37.42
2022-12-04T11:30:33.934Z,38.13
2022-12-04T11:33:03.296Z,37.84
2022-12-04T11:35:31.740Z,37.23
2022-12-04T11:38:05.505Z,37.49
2022-12-04T11:40:32.569Z,37.63
2022-12-04T11:43:14.514Z,37.01
2022-12-04T11:45:42.365Z,36.92
2022-12-04T11:48:18.213Z,37.16
2022-12-04T11:51:00.756Z,36.99
2022-12-04T11:54:00.217Z,37.66
2022-12-04T11:56:33.827Z,37.91
2022-12-04T11:59:19.948Z,38.26
2022-12-04T12:02:00.881Z,38.56
2022-12-04T12:04:43.866Z,38.61
2022-12-04T12:07:40.234Z,38.90
2022-12-04T12:10:17.451Z,39.24
2022-12-04T12:13:34.220Z,39.64
2022-12-04T12:16:13.538Z,39.92
2022-12-04T12:18:40.423Z,39.79
2022-12-04T12:21:23.361Z,40.33
2022-12-04T12:24:07.730Z,40.42
2022-12-04T12:26:50.146Z,40.39
2022-12-04T12:29:47.726Z,40.59
2022-12-04T12:32:49.503Z,40.83
2022-12-04T12:35:41.255Z,41.10
2022-12-04T12:38:22.109Z,40.54
2022-12-04T12:40:53.436Z,40.46
2022-12-04T12:43:35.737Z,41.43
2022-12-04T12:46:34.934Z,41.22
2022-12-04T12:49:12.707Z,40.58
2022-12-04T12:51:49.166Z,40.82
2022-12-04T12:54:46.095Z,41.50
2022-12-04T12:57:21.933Z,41.45
2022-12-04T12:59:56.350Z,42.49
2022-12-04T13:02:34.503Z,42.38
2022-12-04T13:05:06.124Z,42.78
2022-12-04T13:07:40.509Z,42.94
2022-12-04T13:10:15.149Z,42.89
2022-12-04T13:12:51.763Z,43.63
2022-12-04T13:15:24.530Z,43.66
2022-12-04T13:17:56.505Z,43.76
2022-12-04T13:20:31.931Z,43.93
2022-12-04T13:23:49.351Z,44.47
2022-12-04T13:26:53.578Z,44.58
2022-12-04T13:29:46.096Z,43.65
2022-12-04T13:32:31.528Z,44.79
2022-12-04T13:35:14.974Z,44.41
2022-12-04T13:37:50.891Z,44.71
2022-12-04T13:40:17.825Z,44.77
2022-12-04T13:42:44.841Z,44.88
2022-12-04T13:45:32.474Z,45.05
2022-12-04T13:48:02.162Z,45.02
2022-12-04T13:50:38.159Z,45.65
2022-12-04T13:53:06.077Z,44.97
2022-12-04T13:55:37.199Z,45.01
2022-12-04T13:58:13.991Z,44.88
2022-12-04T14:00:44.455Z,45.34
2022-12-04T14:03:32.661Z,45.13
2022-12-04T14:06:01.861Z,45.22
2022-12-04T14:08:43.167Z,45.89
2022-12-04T14:11:16.839Z,45.33
2022-12-04T14:14:08.158Z,45.72
2022-12-04T14:16:42.468Z,45.98
2022-12-04T14:19:28.412Z,45.60
2022-12-04T14:21:55.367Z,45.37
2022-12-04T14:24:39.340Z,45.52
2022-12-04T14:27:54.668Z,45.16
2022-12-04T14:30:27.540Z,45.51
2022-12-04T14:33:09.000Z,45.74
2022-12-04T14:36:04.969Z,45.31
2022-12-04T14:38:32.807Z,45.07
2022-12-04T14:41:00.418Z,45.59
2022-12-04T14:43:39.447Z,45.67
2022-12-04T14:46:50.726Z,45.45
2022-12-04T14:49:36.336Z,45.31
2022-12-04T14:52:27.398Z,46.03
2022-12-04T14:55:13.296Z,45.58
2022-12-04T14:57:55.720Z,45.92
2022-12-04T15:00:25.838Z,45.71
2022-12-04T15:02:56.715Z,45.75
2022-12-04T15:05:30.226Z,46.27
2022-12-04T15:08:01.504Z,46.05
2022-12-04T15:10:31.382Z,46.44
2022-12-04T15:12:58.704Z,47.14
2022-12-04T15:15:30.362Z,47.49
2022-12-04T15:18:10.358Z,47.16
2022-12-04T15:20:50.334Z,47.12
2022-12-04T15:23:33.595Z,47.45
2022-12-04T15:26:07.761Z,48.17
2022-12-04T15:28:43.369Z,47.35
2022-12-04T15:31:38.488Z,47.29
2022-12-04T15:34:13.502Z,47.23
2022-12-04T15:36:50.429Z,48.06
2022-12-04T15:39:21.781Z,47.42
2022-12-04T15:41:49.629Z,47.12
2022-12-04T15:44:27.514Z,47.04
2022-12-04T15:46:58.139Z,47.28
2022-12-04T15:49:28.397Z,47.02
2022-12-04T15:52:15.455Z,47.44
2022-12-04T15:54:59.675Z,47.50
2022-12-04T15:57:33.010Z,47.60
2022-12-04T16:00:06.646Z,47.81
2022-12-04T16:02:43.528Z,47.58
2022-12-04T16:05:34.216Z,47.59
2022-12-04T16:08:21.779Z,47.96
2022-12-04T16:11:04.838Z,48.11
2022-12-04T16:13:41.047Z,47.94
2022-12-04T16:16:13.388Z,47.77
2022-12-04T16:18:43.327Z,48.14
2022-12-04T16:21:24.040Z,48.24
2022-12-04T16:23:51.744Z,48.70
2022-12-04T16:26:21.053Z,48.57
2022-12-04T16:28:51.502Z,48.40
2022-12-04T16:31:24.008Z,48.37
2022-12-04T16:33:53.138Z,48.03
2022-12-04T16:36:37.296Z,48.52
2022-12-04T16:39:06.303Z,48.32
2022-12-04T16:41:35.666Z,48.48
2022-12-04T16:44:09.577Z,48.40
2022-12-04T16:46:37.565Z,48.11
2022-12-04T16:49:07.795Z,48.24
2022-12-04T16:51:38.027Z,48.04
2022-12-04T16:54:06.627Z,48.75
2022-12-04T16:56:34.915Z,48.63
2022-12-04T16:59:07.716Z,48.78
2022-12-04T17:01:45.714Z,49.13
2022-12-04T17:04:13.028Z,48.44
2022-12-04T17:06:43.091Z,48.76
2022-12-04T17:09:12.851Z,49.01
2022-12-04T17:11:41.767Z,49.69
2022-12-04T17:14:13.698Z,49.51
2022-12-04T17:16:44.152Z,49.47
2022-12-04T17:19:13.693Z,48.75
2022-12-04T17:21:41.846Z,49.12
2022-12-04T17:24:09.317Z,49.35
2022-12-04T17:26:36.660Z,49.84
2022-12-04T17:29:03.986Z,50.12
2022-12-04T17:31:31.510Z,49.66
2022-12-04T17:33:58.622Z,49.67
2022-12-04T17:36:26.461Z,49.75
2022-12-04T17:38:55.586Z,49.60
2022-12-04T17:41:22.553Z,49.54
2022-12-04T17:43:49.804Z,49.92
2022-12-04T17:46:20.810Z,50.12
2022-12-04T17:48:48.667Z,50.78
2022-12-04T17:51:21.833Z,50.34
2022-12-04T17:53:49.412Z,50.34
2022-12-04T17:56:20.124Z,50.28
2022-12-04T17:58:47.886Z,50.64
2022-12-04T18:01:21.001Z,50.54
2022-12-04T18:03:59.139Z,50.88
2022-12-04T18:06:29.108Z,50.74
2022-12-04T18:08:56.816Z,50.54
2022-12-04T18:11:26.493Z,50.42
2022-12-04T18:13:59.789Z,50.68
2022-12-04T18:16:29.223Z,50.39
2022-12-04T18:18:57.695Z,50.14
2022-12-04T18:21:25.361Z,49.52
2022-12-04T18:23:52.888Z,49.59
2022-12-04T18:26:22.426Z,49.82
2022-12-04T18:28:49.674Z,50.05
2022-12-04T18:31:18.927Z,50.87
2022-12-04T18:33:47.282Z,50.55
2022-12-04T18:36:17.997Z,50.31
2022-12-04T18:38:45.462Z,50.29
2022-12-04T18:41:16.839Z,50.36
2022-12-04T18:43:44.914Z,50.21
2022-12-04T18:46:15.012Z,50.38
2022-12-04T18:48:43.646Z,50.56
2022-12-04T18:51:24.993Z,51.14
2022-12-04T18:53:55.689Z,50.80
2022-12-04T18:56:23.287Z,50.79
2022-12-04T18:58:50.282Z,50.61
2022-12-04T19:01:19.699Z,51.11
2022-12-04T19:03:47.788Z,50.42
2022-12-04T19:06:15.253Z,51.16
2022-12-04T19:08:43.637Z,50.49
2022-12-04T19:11:16.285Z,51.10
2022-12-04T19:13:43.344Z,50.86
2022-12-04T19:16:15.632Z,50.64
2022-12-04T19:18:43.967Z,51.14
2022-12-04T19:21:11.698Z,50.87
2022-12-04T19:23:38.807Z,51.27
2022-12-04T19:26:06.032Z,50.89
2022-12-04T19:28:33.123Z,51.04
2022-12-04T19:31:00.172Z,51.13
2022-12-04T19:33:28.094Z,50.70
2022-12-04T19:36:03.651Z,51.39
2022-12-04T19:38:32.195Z,51.72
2022-12-04T19:41:11.622Z,51.58
2022-12-04T19:43:40.332Z,51.36
2022-12-04T19:46:09.193Z,51.02
2022-12-04T19:48:37.102Z,50.95
2022-12-04T19:51:06.214Z,51.42
2022-12-04T19:53:39.194Z,51.22
2022-12-04T19:56:13.752Z,51.42
2022-12-04T19:58:40.996Z,50.86
2022-12-04T20:01:11.352Z,51.40
2022-12-04T20:03:38.600Z,51.40
2022-12-04T20:06:15.075Z,50.82
2022-12-04T20:08:42.947Z,50.43
2022-12-04T20:11:13.033Z,50.87
2022-12-04T20:13:40.505Z,51.10
2022-12-04T20:16:11.721Z,50.94
2022-12-04T20:18:40.721Z,51.29
2022-12-04T20:21:08.318Z,51.62
2022-12-04T20:23:35.301Z,51.12
2022-12-04T20:26:06.471Z,50.90
2022-12-04T20:28:33.493Z,50.76
2022-12-04T20:31:00.735Z,50.75
2022-12-04T20:33:27.732Z,51.18
2022-12-04T20:35:54.547Z,51.18
2022-12-04T20:38:21.576Z,51.09
2022-12-04T20:40:48.430Z,50.85
2022-12-04T20:43:15.408Z,50.48
2022-12-04T20:45:42.370Z,50.37
2022-12-04T20:48:09.369Z,50.22
2022-12-04T20:50:36.379Z,50.80
2022-12-04T20:53:03.676Z,50.50
2022-12-04T20:55:30.499Z,50.83
2022-12-04T20:57:57.485Z,50.36
2022-12-04T21:00:24.690Z,50.25
2022-12-04T21:02:51.696Z,50.89
2022-12-04T21:05:18.577Z,51.04
2022-12-04T21:07:45.532Z,51.12
2022-12-04T21:10:12.479Z,50.72
2022-12-04T21:12:43.136Z,50.20
2022-12-04T21:15:10.578Z,50.43
2022-12-04T21:17:37.577Z,49.95
2022-12-04T21:20:07.830Z,50.01
2022-12-04T21:22:35.494Z,50.15
2022-12-04T21:25:02.315Z,50.30
2022-12-04T21:27:29.970Z,50.30
2022-12-04T21:29:56.951Z,49.71
2022-12-04T21:32:24.261Z,50.02
2022-12-04T21:34:51.049Z,49.61
2022-12-04T21:37:17.983Z,50.27
2022-12-04T21:39:44.982Z,49.86
2022-12-04T21:42:11.835Z,49.63
2022-12-04T21:44:38.803Z,50.11
2022-12-04T21:47:05.736Z,50.52
2022-12-04T21:49:32.569Z,50.03
2022-12-04T21:51:59.686Z,50.02
2022-12-04T21:54:27.914Z,50.09
2022-12-04T21:56:55.788Z,50.26
2022-12-04T21:59:23.840Z,50.17
2022-12-04T22:01:50.867Z,50.55
2022-12-04T22:04:18.210Z,50.18
2022-12-04T22:06:45.315Z,50.32
2022-12-04T22:09:13.471Z,50.84
2022-12-04T22:11:41.692Z,50.23
2022-12-04T22:14:09.819Z,49.90
2022-12-04T22:16:41.849Z,50.22
2022-12-04T22:19:11.658Z,50.12
2022-12-04T22:21:39.495Z,50.05
2022-12-04T22:24:07.102Z,49.69
2022-12-04T22:26:34.013Z,49.97
2022-12-04T22:29:01.126Z,49.53
2022-12-04T22:31:30.182Z,49.92
2022-12-04T22:33:59.692Z,49.57
2022-12-04T22:36:32.236Z,49.85
2022-12-04T22:39:09.312Z,49.57
2022-12-04T22:41:36.646Z,49.37
2022-12-04T22:44:03.470Z,49.46
2022-12-04T22:46:30.471Z,49.43
2022-12-04T22:48:59.033Z,49.21
2022-12-04T22:51:27.060Z,48.97
2022-12-04T22:53:56.263Z,49.51
2022-12-04T22:56:29.376Z,49.46
2022-12-04T22:58:57.109Z,48.96
2022-12-04T23:01:27.155Z,48.92
2022-12-04T23:03:55.155Z,48.79
2022-12-04T23:06:23.851Z,48.92
2022-12-04T23:08:59.523Z,48.97
2022-12-04T23:11:28.092Z,49.02
2022-12-04T23:13:57.996Z,48.80
2022-12-04T23:16:25.204Z,48.70
2022-12-04T23:18:52.573Z,48.20
2022-12-04T23:21:21.325Z,48.55
2022-12-04T23:23:50.894Z,48.42
2022-12-04T23:26:23.766Z,48.34
2022-12-04T23:28:51.152Z,48.47
2022-12-04T23:31:18.722Z,48.62
2022-12-04T23:33:45.847Z,48.76
2022-12-04T23:36:14.205Z,48.55
2022-12-04T23:38:43.457Z,48.52
2022-12-04T23:41:22.340Z,48.38
2022-12-04T23:43:50.481Z,48.28
2022-12-04T23:46:20.655Z,48.41
2022-12-04T23:48:50.058Z,48.37
2022-12-04T23:51:19.344Z,48.45
2022-12-04T23:53:47.219Z,47.79
2022-12-04T23:56:20.434Z,47.93
2022-12-04T23:58:49.137Z,48.32
